sensor_id;sensor_type;location;lat;lon;timestamp;P1;durP1;ratioP1;P2;durP2;ratioP2
24216;SDS011;12356;49.386;8.688;2023-06-10T00:00:56;9.15;;;4.65;;
24216;SDS011;12356;49.386;8.688;2023-06-10T00:03:26;8.18;;;5.20;;
24216;SDS011;12356;49.386;8.688;2023-06-10T00:05:57;5.38;;;4.88;;
24216;SDS011;12356;49.386;8.688;2023-06-10T00:08:27;6.75;;;5.65;;
24216;SDS011;12356;49.386;8.688;2023-06-10T00:10:59;7.30;;;5.07;;
24216;SDS011;12356;49.386;8.688;2023-06-10T00:13:30;6.15;;;5.00;;
24216;SDS011;12356;49.386;8.688;2023-06-10T00:16:00;5.10;;;4.60;;
24216;SDS011;12356;49.386;8.688;2023-06-10T00:18:31;7.25;;;5.28;;
24216;SDS011;12356;49.386;8.688;2023-06-10T00:21:02;6.10;;;4.55;;
24216;SDS011;12356;49.386;8.688;2023-06-10T00:23:34;5.10;;;4.60;;
24216;SDS011;12356;49.386;8.688;2023-06-10T00:26:08;6.00;;;4.80;;
24216;SDS011;12356;49.386;8.688;2023-06-10T00:28:39;5.82;;;5.05;;
24216;SDS011;12356;49.386;8.688;2023-06-10T00:31:10;9.32;;;5.03;;
24216;SDS011;12356;49.386;8.688;2023-06-10T00:33:40;6.15;;;4.93;;
24216;SDS011;12356;49.386;8.688;2023-06-10T00:36:11;5.28;;;4.78;;
24216;SDS011;12356;49.386;8.688;2023-06-10T00:38:42;5.38;;;4.88;;
24216;SDS011;12356;49.386;8.688;2023-06-10T00:41:12;7.00;;;4.82;;
24216;SDS011;12356;49.386;8.688;2023-06-10T00:43:43;8.95;;;5.00;;
24216;SDS011;12356;49.386;8.688;2023-06-10T00:46:14;7.65;;;4.90;;
24216;SDS011;12356;49.386;8.688;2023-06-10T00:48:45;8.23;;;5.18;;
24216;SDS011;12356;49.386;8.688;2023-06-10T00:51:17;5.50;;;4.82;;
24216;SDS011;12356;49.386;8.688;2023-06-10T00:53:48;6.80;;;5.10;;
24216;SDS011;12356;49.386;8.688;2023-06-10T00:56:20;5.47;;;4.72;;
24216;SDS011;12356;49.386;8.688;2023-06-10T00:58:51;6.38;;;5.00;;
24216;SDS011;12356;49.386;8.688;2023-06-10T01:01:21;7.70;;;4.70;;
24216;SDS011;12356;49.386;8.688;2023-06-10T01:03:52;7.57;;;5.13;;
24216;SDS011;12356;49.386;8.688;2023-06-10T01:06:30;6.32;;;4.88;;
24216;SDS011;12356;49.386;8.688;2023-06-10T01:14:55;6.03;;;4.53;;
24216;SDS011;12356;49.386;8.688;2023-06-10T01:17:25;5.47;;;4.85;;
24216;SDS011;12356;49.386;8.688;2023-06-10T01:19:57;6.00;;;4.68;;
24216;SDS011;12356;49.386;8.688;2023-06-10T01:22:27;9.95;;;4.65;;
24216;SDS011;12356;49.386;8.688;2023-06-10T01:24:58;5.63;;;4.65;;
24216;SDS011;12356;49.386;8.688;2023-06-10T01:27:30;7.38;;;4.65;;
24216;SDS011;12356;49.386;8.688;2023-06-10T01:30:14;6.13;;;4.90;;
24216;SDS011;12356;49.386;8.688;2023-06-10T01:32:48;5.15;;;4.43;;
24216;SDS011;12356;49.386;8.688;2023-06-10T01:35:21;5.05;;;4.47;;
24216;SDS011;12356;49.386;8.688;2023-06-10T01:37:55;5.63;;;5.00;;
24216;SDS011;12356;49.386;8.688;2023-06-10T01:42:59;5.20;;;4.65;;
24216;SDS011;12356;49.386;8.688;2023-06-10T01:45:30;6.70;;;4.50;;
24216;SDS011;12356;49.386;8.688;2023-06-10T01:48:00;5.25;;;4.60;;
24216;SDS011;12356;49.386;8.688;2023-06-10T01:50:31;7.43;;;4.60;;
24216;SDS011;12356;49.386;8.688;2023-06-10T01:53:01;6.63;;;4.63;;
24216;SDS011;12356;49.386;8.688;2023-06-10T01:55:33;5.65;;;4.45;;
24216;SDS011;12356;49.386;8.688;2023-06-10T01:58:04;5.22;;;4.40;;
24216;SDS011;12356;49.386;8.688;2023-06-10T02:00:34;4.95;;;4.45;;
24216;SDS011;12356;49.386;8.688;2023-06-10T02:03:05;6.00;;;4.32;;
24216;SDS011;12356;49.386;8.688;2023-06-10T02:05:35;4.75;;;4.28;;
24216;SDS011;12356;49.386;8.688;2023-06-10T02:08:06;4.85;;;4.35;;
24216;SDS011;12356;49.386;8.688;2023-06-10T02:10:36;9.00;;;4.90;;
24216;SDS011;12356;49.386;8.688;2023-06-10T02:13:07;5.50;;;4.85;;
24216;SDS011;12356;49.386;8.688;2023-06-10T02:15:38;4.95;;;4.45;;
24216;SDS011;12356;49.386;8.688;2023-06-10T02:18:08;5.00;;;4.40;;
24216;SDS011;12356;49.386;8.688;2023-06-10T02:20:40;7.15;;;4.75;;
24216;SDS011;12356;49.386;8.688;2023-06-10T02:23:10;7.40;;;4.90;;
24216;SDS011;12356;49.386;8.688;2023-06-10T02:25:41;6.20;;;4.97;;
24216;SDS011;12356;49.386;8.688;2023-06-10T02:28:11;5.20;;;4.70;;
24216;SDS011;12356;49.386;8.688;2023-06-10T02:30:42;5.00;;;4.50;;
24216;SDS011;12356;49.386;8.688;2023-06-10T02:33:13;4.97;;;4.47;;
24216;SDS011;12356;49.386;8.688;2023-06-10T02:35:44;6.10;;;4.85;;
24216;SDS011;12356;49.386;8.688;2023-06-10T02:38:15;8.23;;;5.22;;
24216;SDS011;12356;49.386;8.688;2023-06-10T02:40:46;6.18;;;4.82;;
24216;SDS011;12356;49.386;8.688;2023-06-10T02:43:17;5.70;;;4.63;;
24216;SDS011;12356;49.386;8.688;2023-06-10T02:45:48;7.10;;;5.18;;
24216;SDS011;12356;49.386;8.688;2023-06-10T02:48:18;6.00;;;5.10;;
24216;SDS011;12356;49.386;8.688;2023-06-10T02:50:49;5.85;;;5.28;;
24216;SDS011;12356;49.386;8.688;2023-06-10T02:53:19;7.65;;;5.50;;
24216;SDS011;12356;49.386;8.688;2023-06-10T02:55:50;7.03;;;5.38;;
24216;SDS011;12356;49.386;8.688;2023-06-10T02:58:20;7.30;;;5.45;;
24216;SDS011;12356;49.386;8.688;2023-06-10T03:00:52;7.20;;;5.63;;
24216;SDS011;12356;49.386;8.688;2023-06-10T03:03:22;6.35;;;5.60;;
24216;SDS011;12356;49.386;8.688;2023-06-10T03:05:53;6.43;;;5.72;;
24216;SDS011;12356;49.386;8.688;2023-06-10T03:08:24;9.02;;;5.82;;
24216;SDS011;12356;49.386;8.688;2023-06-10T03:10:55;7.13;;;5.53;;
24216;SDS011;12356;49.386;8.688;2023-06-10T03:13:25;9.27;;;5.60;;
24216;SDS011;12356;49.386;8.688;2023-06-10T03:15:56;6.45;;;5.70;;
24216;SDS011;12356;49.386;8.688;2023-06-10T03:18:27;6.55;;;5.93;;
24216;SDS011;12356;49.386;8.688;2023-06-10T03:20:58;7.37;;;5.80;;
24216;SDS011;12356;49.386;8.688;2023-06-10T03:23:29;8.00;;;5.82;;
24216;SDS011;12356;49.386;8.688;2023-06-10T03:25:59;6.13;;;5.53;;
24216;SDS011;12356;49.386;8.688;2023-06-10T03:28:30;8.10;;;5.30;;
24216;SDS011;12356;49.386;8.688;2023-06-10T03:31:01;6.93;;;5.97;;
24216;SDS011;12356;49.386;8.688;2023-06-10T03:33:32;6.10;;;5.50;;
24216;SDS011;12356;49.386;8.688;2023-06-10T03:36:02;6.95;;;6.10;;
24216;SDS011;12356;49.386;8.688;2023-06-10T03:38:33;10.32;;;5.43;;
24216;SDS011;12356;49.386;8.688;2023-06-10T03:41:04;7.35;;;5.50;;
24216;SDS011;12356;49.386;8.688;2023-06-10T03:43:34;6.30;;;5.70;;
24216;SDS011;12356;49.386;8.688;2023-06-10T03:46:05;6.22;;;5.57;;
24216;SDS011;12356;49.386;8.688;2023-06-10T03:48:35;7.38;;;5.55;;
24216;SDS011;12356;49.386;8.688;2023-06-10T03:51:07;6.80;;;5.90;;
24216;SDS011;12356;49.386;8.688;2023-06-10T03:53:37;8.25;;;6.00;;
24216;SDS011;12356;49.386;8.688;2023-06-10T03:56:08;6.57;;;5.85;;
24216;SDS011;12356;49.386;8.688;2023-06-10T03:58:38;8.48;;;6.20;;
24216;SDS011;12356;49.386;8.688;2023-06-10T04:01:09;7.25;;;6.13;;
24216;SDS011;12356;49.386;8.688;2023-06-10T04:03:40;6.93;;;6.13;;
24216;SDS011;12356;49.386;8.688;2023-06-10T04:06:11;6.22;;;5.63;;
24216;SDS011;12356;49.386;8.688;2023-06-10T04:08:42;8.48;;;5.93;;
24216;SDS011;12356;49.386;8.688;2023-06-10T04:11:12;7.53;;;6.05;;
24216;SDS011;12356;49.386;8.688;2023-06-10T04:13:43;7.28;;;6.25;;
24216;SDS011;12356;49.386;8.688;2023-06-10T04:16:14;7.65;;;6.07;;
24216;SDS011;12356;49.386;8.688;2023-06-10T04:18:44;7.00;;;6.30;;
24216;SDS011;12356;49.386;8.688;2023-06-10T04:21:15;6.80;;;6.00;;
24216;SDS011;12356;49.386;8.688;2023-06-10T04:23:45;7.35;;;6.65;;
24216;SDS011;12356;49.386;8.688;2023-06-10T04:26:16;7.03;;;6.32;;
24216;SDS011;12356;49.386;8.688;2023-06-10T04:28:46;6.53;;;5.85;;
24216;SDS011;12356;49.386;8.688;2023-06-10T04:31:17;7.95;;;6.22;;
24216;SDS011;12356;49.386;8.688;2023-06-10T04:33:47;8.68;;;6.28;;
24216;SDS011;12356;49.386;8.688;2023-06-10T04:36:18;8.93;;;6.30;;
24216;SDS011;12356;49.386;8.688;2023-06-10T04:38:49;7.88;;;6.22;;
24216;SDS011;12356;49.386;8.688;2023-06-10T04:41:22;7.22;;;6.15;;
24216;SDS011;12356;49.386;8.688;2023-06-10T04:43:52;7.80;;;6.25;;
24216;SDS011;12356;49.386;8.688;2023-06-10T04:46:23;7.05;;;6.35;;
24216;SDS011;12356;49.386;8.688;2023-06-10T04:48:54;6.95;;;6.00;;
24216;SDS011;12356;49.386;8.688;2023-06-10T04:51:25;7.22;;;6.50;;
24216;SDS011;12356;49.386;8.688;2023-06-10T04:53:56;7.28;;;6.53;;
24216;SDS011;12356;49.386;8.688;2023-06-10T04:56:26;8.77;;;6.85;;
24216;SDS011;12356;49.386;8.688;2023-06-10T04:58:57;6.82;;;6.10;;
24216;SDS011;12356;49.386;8.688;2023-06-10T05:01:27;7.53;;;6.30;;
24216;SDS011;12356;49.386;8.688;2023-06-10T05:03:58;9.73;;;6.50;;
24216;SDS011;12356;49.386;8.688;2023-06-10T05:06:28;7.38;;;6.00;;
24216;SDS011;12356;49.386;8.688;2023-06-10T05:08:59;7.10;;;6.10;;
24216;SDS011;12356;49.386;8.688;2023-06-10T05:11:29;7.47;;;6.15;;
24216;SDS011;12356;49.386;8.688;2023-06-10T05:14:00;7.32;;;6.05;;
24216;SDS011;12356;49.386;8.688;2023-06-10T05:16:30;7.63;;;6.43;;
24216;SDS011;12356;49.386;8.688;2023-06-10T05:19:01;7.97;;;6.45;;
24216;SDS011;12356;49.386;8.688;2023-06-10T05:21:32;10.45;;;6.78;;
24216;SDS011;12356;49.386;8.688;2023-06-10T05:24:02;7.47;;;6.78;;
24216;SDS011;12356;49.386;8.688;2023-06-10T05:26:33;8.18;;;6.50;;
24216;SDS011;12356;49.386;8.688;2023-06-10T05:29:07;7.53;;;6.53;;
24216;SDS011;12356;49.386;8.688;2023-06-10T05:31:39;6.93;;;6.22;;
24216;SDS011;12356;49.386;8.688;2023-06-10T05:34:09;7.13;;;6.35;;
24216;SDS011;12356;49.386;8.688;2023-06-10T05:36:40;7.30;;;6.55;;
24216;SDS011;12356;49.386;8.688;2023-06-10T05:39:10;8.10;;;6.82;;
24216;SDS011;12356;49.386;8.688;2023-06-10T05:41:41;7.53;;;6.63;;
24216;SDS011;12356;49.386;8.688;2023-06-10T05:44:12;8.38;;;6.65;;
24216;SDS011;12356;49.386;8.688;2023-06-10T05:46:42;7.35;;;6.63;;
24216;SDS011;12356;49.386;8.688;2023-06-10T05:49:13;7.38;;;6.40;;
24216;SDS011;12356;49.386;8.688;2023-06-10T05:51:43;9.90;;;6.57;;
24216;SDS011;12356;49.386;8.688;2023-06-10T05:54:14;7.38;;;6.68;;
24216;SDS011;12356;49.386;8.688;2023-06-10T05:56:44;9.02;;;6.70;;
24216;SDS011;12356;49.386;8.688;2023-06-10T05:59:15;7.78;;;7.00;;
24216;SDS011;12356;49.386;8.688;2023-06-10T06:01:46;7.60;;;6.80;;
24216;SDS011;12356;49.386;8.688;2023-06-10T06:04:16;9.02;;;6.85;;
24216;SDS011;12356;49.386;8.688;2023-06-10T06:06:47;8.30;;;6.75;;
24216;SDS011;12356;49.386;8.688;2023-06-10T06:09:17;16.17;;;7.47;;
24216;SDS011;12356;49.386;8.688;2023-06-10T06:11:48;14.60;;;7.30;;
24216;SDS011;12356;49.386;8.688;2023-06-10T06:14:18;9.13;;;6.97;;
24216;SDS011;12356;49.386;8.688;2023-06-10T06:16:49;7.88;;;7.00;;
24216;SDS011;12356;49.386;8.688;2023-06-10T06:19:19;11.80;;;6.90;;
24216;SDS011;12356;49.386;8.688;2023-06-10T06:21:50;8.63;;;7.13;;
24216;SDS011;12356;49.386;8.688;2023-06-10T06:24:21;8.63;;;7.13;;
24216;SDS011;12356;49.386;8.688;2023-06-10T06:26:51;9.02;;;6.90;;
24216;SDS011;12356;49.386;8.688;2023-06-10T06:29:22;7.70;;;6.63;;
24216;SDS011;12356;49.386;8.688;2023-06-10T06:31:52;7.40;;;6.70;;
24216;SDS011;12356;49.386;8.688;2023-06-10T06:34:23;7.68;;;6.97;;
24216;SDS011;12356;49.386;8.688;2023-06-10T06:36:53;8.35;;;6.70;;
24216;SDS011;12356;49.386;8.688;2023-06-10T06:39:24;8.60;;;6.78;;
24216;SDS011;12356;49.386;8.688;2023-06-10T06:41:55;7.55;;;6.72;;
24216;SDS011;12356;49.386;8.688;2023-06-10T06:44:26;9.27;;;6.50;;
24216;SDS011;12356;49.386;8.688;2023-06-10T06:46:56;7.57;;;6.32;;
24216;SDS011;12356;49.386;8.688;2023-06-10T06:49:27;7.65;;;6.40;;
24216;SDS011;12356;49.386;8.688;2023-06-10T06:51:57;8.10;;;5.80;;
24216;SDS011;12356;49.386;8.688;2023-06-10T06:54:28;6.45;;;5.43;;
24216;SDS011;12356;49.386;8.688;2023-06-10T06:56:59;6.20;;;5.60;;
24216;SDS011;12356;49.386;8.688;2023-06-10T06:59:29;6.78;;;5.28;;
24216;SDS011;12356;49.386;8.688;2023-06-10T07:02:00;5.20;;;4.70;;
24216;SDS011;12356;49.386;8.688;2023-06-10T07:04:30;6.60;;;5.10;;
24216;SDS011;12356;49.386;8.688;2023-06-10T07:07:01;6.78;;;4.82;;
24216;SDS011;12356;49.386;8.688;2023-06-10T07:09:32;7.22;;;5.00;;
24216;SDS011;12356;49.386;8.688;2023-06-10T07:12:03;5.65;;;5.05;;
24216;SDS011;12356;49.386;8.688;2023-06-10T07:14:33;6.93;;;5.22;;
24216;SDS011;12356;49.386;8.688;2023-06-10T07:17:04;6.15;;;5.20;;
24216;SDS011;12356;49.386;8.688;2023-06-10T07:19:35;7.18;;;4.70;;
24216;SDS011;12356;49.386;8.688;2023-06-10T07:22:05;5.82;;;5.22;;
24216;SDS011;12356;49.386;8.688;2023-06-10T07:24:36;5.53;;;4.90;;
24216;SDS011;12356;49.386;8.688;2023-06-10T07:27:06;5.75;;;4.97;;
24216;SDS011;12356;49.386;8.688;2023-06-10T07:29:37;5.30;;;4.80;;
24216;SDS011;12356;49.386;8.688;2023-06-10T07:32:07;6.13;;;5.05;;
24216;SDS011;12356;49.386;8.688;2023-06-10T07:34:38;5.72;;;5.13;;
24216;SDS011;12356;49.386;8.688;2023-06-10T07:37:08;5.97;;;5.38;;
24216;SDS011;12356;49.386;8.688;2023-06-10T07:39:39;5.45;;;4.65;;
24216;SDS011;12356;49.386;8.688;2023-06-10T07:42:10;5.75;;;5.15;;
24216;SDS011;12356;49.386;8.688;2023-06-10T07:44:41;5.38;;;4.88;;
24216;SDS011;12356;49.386;8.688;2023-06-10T07:47:11;6.22;;;5.20;;
24216;SDS011;12356;49.386;8.688;2023-06-10T07:49:42;5.72;;;5.10;;
24216;SDS011;12356;49.386;8.688;2023-06-10T07:52:12;7.20;;;5.32;;
24216;SDS011;12356;49.386;8.688;2023-06-10T07:54:43;6.03;;;5.43;;
24216;SDS011;12356;49.386;8.688;2023-06-10T07:57:13;6.40;;;5.28;;
24216;SDS011;12356;49.386;8.688;2023-06-10T07:59:45;5.67;;;5.17;;
24216;SDS011;12356;49.386;8.688;2023-06-10T08:02:15;6.45;;;5.30;;
24216;SDS011;12356;49.386;8.688;2023-06-10T08:04:46;5.75;;;4.93;;
24216;SDS011;12356;49.386;8.688;2023-06-10T08:07:16;6.70;;;5.10;;
24216;SDS011;12356;49.386;8.688;2023-06-10T08:09:49;7.65;;;5.60;;
24216;SDS011;12356;49.386;8.688;2023-06-10T08:12:19;6.30;;;5.70;;
24216;SDS011;12356;49.386;8.688;2023-06-10T08:14:50;6.43;;;5.00;;
24216;SDS011;12356;49.386;8.688;2023-06-10T08:17:21;6.15;;;5.55;;
24216;SDS011;12356;49.386;8.688;2023-06-10T08:19:51;5.95;;;5.38;;
24216;SDS011;12356;49.386;8.688;2023-06-10T08:22:22;8.40;;;5.75;;
24216;SDS011;12356;49.386;8.688;2023-06-10T08:24:53;6.53;;;5.43;;
24216;SDS011;12356;49.386;8.688;2023-06-10T08:27:23;7.13;;;5.10;;
24216;SDS011;12356;49.386;8.688;2023-06-10T08:29:54;6.75;;;5.80;;
24216;SDS011;12356;49.386;8.688;2023-06-10T08:32:25;6.70;;;6.03;;
24216;SDS011;12356;49.386;8.688;2023-06-10T08:34:56;7.88;;;5.88;;
24216;SDS011;12356;49.386;8.688;2023-06-10T08:37:26;6.63;;;5.70;;
24216;SDS011;12356;49.386;8.688;2023-06-10T08:39:57;6.40;;;5.80;;
24216;SDS011;12356;49.386;8.688;2023-06-10T08:42:28;7.20;;;6.07;;
24216;SDS011;12356;49.386;8.688;2023-06-10T08:45:07;6.20;;;5.60;;
24216;SDS011;12356;49.386;8.688;2023-06-10T08:47:42;6.80;;;5.65;;
24216;SDS011;12356;49.386;8.688;2023-06-10T08:50:16;6.40;;;5.75;;
24216;SDS011;12356;49.386;8.688;2023-06-10T08:52:48;6.47;;;5.45;;
24216;SDS011;12356;49.386;8.688;2023-06-10T08:55:25;7.25;;;5.53;;
24216;SDS011;12356;49.386;8.688;2023-06-10T08:57:59;6.53;;;5.82;;
24216;SDS011;12356;49.386;8.688;2023-06-10T09:00:31;7.18;;;5.53;;
24216;SDS011;12356;49.386;8.688;2023-06-10T09:03:02;7.70;;;6.05;;
24216;SDS011;12356;49.386;8.688;2023-06-10T09:05:34;7.53;;;6.10;;
24216;SDS011;12356;49.386;8.688;2023-06-10T09:08:06;8.77;;;5.80;;
24216;SDS011;12356;49.386;8.688;2023-06-10T09:10:38;6.68;;;5.95;;
24216;SDS011;12356;49.386;8.688;2023-06-10T09:13:09;9.93;;;6.15;;
24216;SDS011;12356;49.386;8.688;2023-06-10T09:15:40;8.77;;;6.10;;
24216;SDS011;12356;49.386;8.688;2023-06-10T09:18:11;6.38;;;5.63;;
24216;SDS011;12356;49.386;8.688;2023-06-10T09:20:42;5.68;;;5.13;;
24216;SDS011;12356;49.386;8.688;2023-06-10T09:23:13;7.10;;;5.75;;
24216;SDS011;12356;49.386;8.688;2023-06-10T09:25:45;8.35;;;6.00;;
24216;SDS011;12356;49.386;8.688;2023-06-10T09:28:16;6.35;;;5.72;;
24216;SDS011;12356;49.386;8.688;2023-06-10T09:30:46;6.78;;;5.75;;
24216;SDS011;12356;49.386;8.688;2023-06-10T09:33:17;7.15;;;5.90;;
24216;SDS011;12356;49.386;8.688;2023-06-10T09:35:48;6.95;;;5.65;;
24216;SDS011;12356;49.386;8.688;2023-06-10T09:38:20;7.38;;;6.00;;
24216;SDS011;12356;49.386;8.688;2023-06-10T09:40:53;6.13;;;5.60;;
24216;SDS011;12356;49.386;8.688;2023-06-10T09:43:38;6.57;;;5.80;;
24216;SDS011;12356;49.386;8.688;2023-06-10T09:46:16;6.68;;;5.95;;
24216;SDS011;12356;49.386;8.688;2023-06-10T09:48:47;6.32;;;5.72;;
24216;SDS011;12356;49.386;8.688;2023-06-10T09:51:18;6.22;;;5.65;;
24216;SDS011;12356;49.386;8.688;2023-06-10T09:53:50;8.90;;;6.13;;
24216;SDS011;12356;49.386;8.688;2023-06-10T09:56:22;7.35;;;6.03;;
24216;SDS011;12356;49.386;8.688;2023-06-10T09:59:03;6.53;;;5.93;;
24216;SDS011;12356;49.386;8.688;2023-06-10T10:01:37;6.72;;;6.03;;
24216;SDS011;12356;49.386;8.688;2023-06-10T10:04:07;7.63;;;6.15;;
24216;SDS011;12356;49.386;8.688;2023-06-10T10:06:38;10.23;;;6.10;;
24216;SDS011;12356;49.386;8.688;2023-06-10T10:09:09;7.03;;;5.80;;
24216;SDS011;12356;49.386;8.688;2023-06-10T10:11:40;6.43;;;5.70;;
24216;SDS011;12356;49.386;8.688;2023-06-10T10:14:12;7.00;;;5.93;;
24216;SDS011;12356;49.386;8.688;2023-06-10T10:16:45;10.05;;;6.40;;
24216;SDS011;12356;49.386;8.688;2023-06-10T10:21:53;8.30;;;5.90;;
24216;SDS011;12356;49.386;8.688;2023-06-10T10:24:30;6.20;;;5.60;;
24216;SDS011;12356;49.386;8.688;2023-06-10T10:27:26;8.75;;;5.82;;
24216;SDS011;12356;49.386;8.688;2023-06-10T10:30:00;7.38;;;5.85;;
24216;SDS011;12356;49.386;8.688;2023-06-10T10:32:35;7.72;;;5.90;;
24216;SDS011;12356;49.386;8.688;2023-06-10T10:35:25;6.63;;;5.70;;
24216;SDS011;12356;49.386;8.688;2023-06-10T10:37:56;6.43;;;5.70;;
24216;SDS011;12356;49.386;8.688;2023-06-10T10:40:27;7.80;;;5.90;;
24216;SDS011;12356;49.386;8.688;2023-06-10T10:45:30;7.63;;;5.50;;
24216;SDS011;12356;49.386;8.688;2023-06-10T10:48:05;8.10;;;5.75;;
24216;SDS011;12356;49.386;8.688;2023-06-10T10:50:40;6.15;;;5.55;;
24216;SDS011;12356;49.386;8.688;2023-06-10T10:53:10;7.05;;;6.07;;
24216;SDS011;12356;49.386;8.688;2023-06-10T10:55:41;8.68;;;5.82;;
24216;SDS011;12356;49.386;8.688;2023-06-10T10:58:11;6.03;;;5.43;;
24216;SDS011;12356;49.386;8.688;2023-06-10T11:00:45;6.78;;;5.55;;
24216;SDS011;12356;49.386;8.688;2023-06-10T11:03:19;6.70;;;5.57;;
24216;SDS011;12356;49.386;8.688;2023-06-10T11:05:49;6.32;;;5.78;;
24216;SDS011;12356;49.386;8.688;2023-06-10T11:11:17;6.15;;;5.35;;
24216;SDS011;12356;49.386;8.688;2023-06-10T11:13:59;6.20;;;5.10;;
24216;SDS011;12356;49.386;8.688;2023-06-10T11:16:40;6.88;;;4.82;;
24216;SDS011;12356;49.386;8.688;2023-06-10T11:19:31;6.20;;;5.32;;
24216;SDS011;12356;49.386;8.688;2023-06-10T11:22:06;5.60;;;5.00;;
24216;SDS011;12356;49.386;8.688;2023-06-10T11:24:37;6.18;;;5.07;;
24216;SDS011;12356;49.386;8.688;2023-06-10T11:27:14;6.57;;;5.10;;
24216;SDS011;12356;49.386;8.688;2023-06-10T11:29:55;5.55;;;5.03;;
24216;SDS011;12356;49.386;8.688;2023-06-10T11:32:36;5.70;;;5.10;;
24216;SDS011;12356;49.386;8.688;2023-06-10T11:35:07;5.43;;;4.90;;
24216;SDS011;12356;49.386;8.688;2023-06-10T11:37:38;6.72;;;5.07;;
24216;SDS011;12356;49.386;8.688;2023-06-10T11:40:09;5.28;;;4.68;;
24216;SDS011;12356;49.386;8.688;2023-06-10T11:42:40;6.05;;;4.93;;
24216;SDS011;12356;49.386;8.688;2023-06-10T11:47:58;5.38;;;4.88;;
24216;SDS011;12356;49.386;8.688;2023-06-10T11:50:33;8.30;;;4.90;;
24216;SDS011;12356;49.386;8.688;2023-06-10T11:53:03;6.65;;;5.13;;
24216;SDS011;12356;49.386;8.688;2023-06-10T11:55:47;5.32;;;4.70;;
24216;SDS011;12356;49.386;8.688;2023-06-10T11:58:21;5.90;;;4.50;;
24216;SDS011;12356;49.386;8.688;2023-06-10T12:00:53;4.88;;;4.47;;
24216;SDS011;12356;49.386;8.688;2023-06-10T12:03:26;5.22;;;4.50;;
24216;SDS011;12356;49.386;8.688;2023-06-10T12:05:57;4.72;;;3.95;;
24216;SDS011;12356;49.386;8.688;2023-06-10T12:08:29;5.97;;;4.00;;
24216;SDS011;12356;49.386;8.688;2023-06-10T12:11:00;4.32;;;3.78;;
24216;SDS011;12356;49.386;8.688;2023-06-10T12:13:31;4.78;;;4.32;;
24216;SDS011;12356;49.386;8.688;2023-06-10T12:16:06;6.15;;;4.15;;
24216;SDS011;12356;49.386;8.688;2023-06-10T12:18:37;4.68;;;4.18;;
24216;SDS011;12356;49.386;8.688;2023-06-10T12:21:23;4.80;;;4.40;;
24216;SDS011;12356;49.386;8.688;2023-06-10T12:24:04;6.10;;;4.80;;
24216;SDS011;12356;49.386;8.688;2023-06-10T12:26:36;6.05;;;4.60;;
24216;SDS011;12356;49.386;8.688;2023-06-10T12:29:22;4.95;;;4.03;;
24216;SDS011;12356;49.386;8.688;2023-06-10T12:31:57;5.72;;;4.68;;
24216;SDS011;12356;49.386;8.688;2023-06-10T12:34:33;7.55;;;4.68;;
24216;SDS011;12356;49.386;8.688;2023-06-10T12:37:14;6.32;;;4.70;;
24216;SDS011;12356;49.386;8.688;2023-06-10T12:39:51;4.93;;;4.43;;
24216;SDS011;12356;49.386;8.688;2023-06-10T12:42:24;6.30;;;4.78;;
24216;SDS011;12356;49.386;8.688;2023-06-10T12:44:55;6.15;;;4.60;;
24216;SDS011;12356;49.386;8.688;2023-06-10T12:47:30;5.32;;;4.65;;
24216;SDS011;12356;49.386;8.688;2023-06-10T12:50:02;7.28;;;4.85;;
24216;SDS011;12356;49.386;8.688;2023-06-10T12:52:34;7.82;;;5.28;;
24216;SDS011;12356;49.386;8.688;2023-06-10T12:55:05;5.72;;;4.80;;
24216;SDS011;12356;49.386;8.688;2023-06-10T12:57:35;4.97;;;4.57;;
24216;SDS011;12356;49.386;8.688;2023-06-10T13:00:06;5.13;;;4.70;;
24216;SDS011;12356;49.386;8.688;2023-06-10T13:02:38;7.25;;;4.68;;
24216;SDS011;12356;49.386;8.688;2023-06-10T13:05:09;6.53;;;4.57;;
24216;SDS011;12356;49.386;8.688;2023-06-10T13:07:39;9.45;;;4.50;;
24216;SDS011;12356;49.386;8.688;2023-06-10T13:10:12;5.55;;;4.15;;
24216;SDS011;12356;49.386;8.688;2023-06-10T13:12:44;4.22;;;3.80;;
24216;SDS011;12356;49.386;8.688;2023-06-10T13:15:16;6.28;;;4.18;;
24216;SDS011;12356;49.386;8.688;2023-06-10T13:17:47;4.85;;;4.30;;
24216;SDS011;12356;49.386;8.688;2023-06-10T13:20:20;5.25;;;4.50;;
24216;SDS011;12356;49.386;8.688;2023-06-10T13:22:50;5.28;;;4.53;;
24216;SDS011;12356;49.386;8.688;2023-06-10T13:25:21;4.43;;;3.95;;
24216;SDS011;12356;49.386;8.688;2023-06-10T13:27:51;4.53;;;3.78;;
24216;SDS011;12356;49.386;8.688;2023-06-10T13:30:22;4.68;;;4.25;;
24216;SDS011;12356;49.386;8.688;2023-06-10T13:32:52;4.57;;;4.10;;
24216;SDS011;12356;49.386;8.688;2023-06-10T13:35:23;4.65;;;4.00;;
24216;SDS011;12356;49.386;8.688;2023-06-10T13:37:53;5.03;;;4.20;;
24216;SDS011;12356;49.386;8.688;2023-06-10T13:40:24;5.20;;;3.95;;
24216;SDS011;12356;49.386;8.688;2023-06-10T13:42:55;7.40;;;4.18;;
24216;SDS011;12356;49.386;8.688;2023-06-10T13:45:25;4.20;;;3.80;;
24216;SDS011;12356;49.386;8.688;2023-06-10T13:47:56;4.85;;;4.15;;
24216;SDS011;12356;49.386;8.688;2023-06-10T13:50:26;4.30;;;3.90;;
24216;SDS011;12356;49.386;8.688;2023-06-10T13:52:57;4.30;;;3.90;;
24216;SDS011;12356;49.386;8.688;2023-06-10T13:55:27;4.10;;;3.75;;
24216;SDS011;12356;49.386;8.688;2023-06-10T13:57:58;4.47;;;4.05;;
24216;SDS011;12356;49.386;8.688;2023-06-10T14:00:29;4.65;;;4.00;;
24216;SDS011;12356;49.386;8.688;2023-06-10T14:03:00;4.32;;;3.92;;
24216;SDS011;12356;49.386;8.688;2023-06-10T14:05:30;4.10;;;3.72;;
24216;SDS011;12356;49.386;8.688;2023-06-10T14:08:01;5.35;;;4.18;;
24216;SDS011;12356;49.386;8.688;2023-06-10T14:10:32;5.13;;;4.20;;
24216;SDS011;12356;49.386;8.688;2023-06-10T14:13:03;5.43;;;3.90;;
24216;SDS011;12356;49.386;8.688;2023-06-10T14:15:35;5.30;;;4.03;;
24216;SDS011;12356;49.386;8.688;2023-06-10T14:18:06;4.55;;;4.15;;
24216;SDS011;12356;49.386;8.688;2023-06-10T14:20:36;4.95;;;4.18;;
24216;SDS011;12356;49.386;8.688;2023-06-10T14:23:07;4.35;;;3.95;;
24216;SDS011;12356;49.386;8.688;2023-06-10T14:25:38;4.68;;;3.90;;
24216;SDS011;12356;49.386;8.688;2023-06-10T14:28:08;6.07;;;4.38;;
24216;SDS011;12356;49.386;8.688;2023-06-10T14:30:39;5.22;;;4.30;;
24216;SDS011;12356;49.386;8.688;2023-06-10T14:33:09;6.00;;;4.68;;
24216;SDS011;12356;49.386;8.688;2023-06-10T14:35:40;5.32;;;4.70;;
24216;SDS011;12356;49.386;8.688;2023-06-10T14:38:12;4.68;;;4.28;;
24216;SDS011;12356;49.386;8.688;2023-06-10T14:40:43;5.05;;;4.30;;
24216;SDS011;12356;49.386;8.688;2023-06-10T14:43:13;6.47;;;4.30;;
24216;SDS011;12356;49.386;8.688;2023-06-10T14:45:44;8.52;;;4.55;;
24216;SDS011;12356;49.386;8.688;2023-06-10T14:48:17;4.82;;;4.32;;
24216;SDS011;12356;49.386;8.688;2023-06-10T14:50:48;5.28;;;4.78;;
24216;SDS011;12356;49.386;8.688;2023-06-10T14:53:21;4.88;;;4.28;;
24216;SDS011;12356;49.386;8.688;2023-06-10T14:55:51;5.30;;;4.55;;
24216;SDS011;12356;49.386;8.688;2023-06-10T14:58:22;5.65;;;4.53;;
24216;SDS011;12356;49.386;8.688;2023-06-10T15:00:52;5.45;;;4.40;;
24216;SDS011;12356;49.386;8.688;2023-06-10T15:03:23;5.03;;;4.55;;
24216;SDS011;12356;49.386;8.688;2023-06-10T15:05:53;5.43;;;4.90;;
24216;SDS011;12356;49.386;8.688;2023-06-10T15:08:24;5.90;;;4.90;;
24216;SDS011;12356;49.386;8.688;2023-06-10T15:10:54;5.57;;;4.80;;
24216;SDS011;12356;49.386;8.688;2023-06-10T15:13:27;5.65;;;4.72;;
24216;SDS011;12356;49.386;8.688;2023-06-10T15:15:58;5.07;;;4.65;;
24216;SDS011;12356;49.386;8.688;2023-06-10T15:18:28;5.35;;;4.38;;
24216;SDS011;12356;49.386;8.688;2023-06-10T15:20:59;8.65;;;4.93;;
24216;SDS011;12356;49.386;8.688;2023-06-10T15:23:29;6.10;;;4.90;;
24216;SDS011;12356;49.386;8.688;2023-06-10T15:26:00;6.47;;;4.57;;
24216;SDS011;12356;49.386;8.688;2023-06-10T15:28:31;5.18;;;4.68;;
24216;SDS011;12356;49.386;8.688;2023-06-10T15:31:01;5.90;;;4.53;;
24216;SDS011;12356;49.386;8.688;2023-06-10T15:33:32;5.80;;;5.20;;